Time;durP1;ratioP1;P1;durP2;ratioP2;P2;SDS_P1;SDS_P2;PMS_P1;PMS_P2;Temp;Humidity;BMP_temperature;BMP_pressure;BME280_temperature;BME280_humidity;BME280_pressure;Samples;Min_cycle;Max_cycle;Signal;HPM_P1;HPM_P2
2022/12/17 13:08:08;;;;;;;1.42;0.60;;;;;;;;;;5039253;28;20059;-66
2022/12/17 13:10:36;;;;;;;2.10;0.73;;;;;;;;;;5037920;28;20045;-66
2022/12/17 13:13:22;;;;;;;2.95;0.60;;;;;;;;;;5038649;28;20052;-63
2022/12/17 13:15:52;;;;;;;9.23;0.75;;;;;;;;;;5037763;28;20037;-63
2022/12/17 13:18:23;;;;;;;1.20;0.60;;;;;;;;;;5040975;28;21808;-65
2022/12/17 13:21:00;;;;;;;1.75;0.65;;;;;;;;;;5041319;28;20456;-66
2022/12/17 13:23:30;;;;;;;0.73;0.35;;;;;;;;;;5042369;28;20052;-65
2022/12/17 13:26:04;;;;;;;2.20;0.65;;;;;;;;;;5043563;28;20053;-65
2022/12/17 13:28:30;;;;;;;2.15;0.95;;;;;;;;;;5043380;28;20458;-65
2022/12/17 13:31:02;;;;;;;2.72;0.90;;;;;;;;;;5045188;28;20070;-65
2022/12/17 13:33:47;;;;;;;1.00;0.52;;;;;;;;;;5040955;28;20041;-64
2022/12/17 13:36:28;;;;;;;0.88;0.40;;;;;;;;;;5041478;28;20532;-67
2022/12/17 13:39:05;;;;;;;6.00;0.90;;;;;;;;;;5027894;28;20119;-65
2022/12/17 13:41:32;;;;;;;3.10;0.57;;;;;;;;;;5041073;28;20052;-64
2022/12/17 13:44:02;;;;;;;1.13;0.50;;;;;;;;;;5041823;28;20060;-65
2022/12/17 13:46:30;;;;;;;2.38;0.60;;;;;;;;;;5040153;28;20126;-64
2022/12/17 13:48:58;;;;;;;1.10;0.52;;;;;;;;;;5041313;28;20064;-62
2022/12/17 13:51:27;;;;;;;2.28;0.68;;;;;;;;;;5040412;28;20395;-65
2022/12/17 13:53:55;;;;;;;0.85;0.63;;;;;;;;;;5040410;28;20060;-63
2022/12/17 13:56:22;;;;;;;1.10;0.40;;;;;;;;;;5039246;28;20547;-63
2022/12/17 13:58:51;;;;;;;1.88;0.65;;;;;;;;;;5036904;28;20044;-65
2022/12/17 14:01:18;;;;;;;1.88;0.70;;;;;;;;;;5039284;28;20041;-65
2022/12/17 14:03:52;;;;;;;1.00;0.68;;;;;;;;;;5041984;28;20033;-66
2022/12/17 14:06:19;;;;;;;1.35;0.47;;;;;;;;;;5042224;28;20134;-64
2022/12/17 14:08:47;;;;;;;3.63;0.98;;;;;;;;;;5036568;28;20544;-63
2022/12/17 14:13:59;;;;;;;1.33;0.68;;;;;;;;;;5041524;28;20519;-66
2022/12/17 14:16:26;;;;;;;1.05;0.63;;;;;;;;;;5040654;28;20102;-63
2022/12/17 14:18:54;;;;;;;0.82;0.40;;;;;;;;;;5040561;28;20076;-62
2022/12/17 14:21:21;;;;;;;0.88;0.50;;;;;;;;;;5038939;28;20118;-65
2022/12/17 14:23:49;;;;;;;0.52;0.35;;;;;;;;;;5040983;28;20040;-65
2022/12/17 14:26:16;;;;;;;0.90;0.43;;;;;;;;;;5039428;28;20047;-65
2022/12/17 14:28:50;;;;;;;0.75;0.45;;;;;;;;;;5039441;28;20037;-65
2022/12/17 14:31:17;;;;;;;2.10;0.60;;;;;;;;;;5040431;28;20041;-65
2022/12/17 14:33:44;;;;;;;0.52;0.25;;;;;;;;;;5034969;28;20033;-65
2022/12/17 14:36:17;;;;;;;1.73;0.55;;;;;;;;;;5041050;28;20052;-65
2022/12/17 14:38:58;;;;;;;1.45;0.60;;;;;;;;;;5039287;28;20124;-64
2022/12/17 14:44:20;;;;;;;2.80;0.88;;;;;;;;;;5041398;28;20044;-65
2022/12/17 14:46:47;;;;;;;1.88;0.65;;;;;;;;;;5039663;28;20056;-64
2022/12/17 14:49:19;;;;;;;2.03;0.63;;;;;;;;;;5038770;28;20116;-65
2022/12/17 14:51:46;;;;;;;0.60;0.40;;;;;;;;;;5041006;28;20584;-65
2022/12/17 14:54:19;;;;;;;0.57;0.35;;;;;;;;;;5040976;28;20050;-64
2022/12/17 14:56:46;;;;;;;8.77;0.70;;;;;;;;;;5053114;28;20051;-65
2022/12/17 14:59:31;;;;;;;0.20;0.20;;;;;;;;;;5039828;28;20041;-65
2022/12/17 15:02:00;;;;;;;0.20;0.20;;;;;;;;;;5039696;28;20095;-65
2022/12/17 15:04:27;;;;;;;0.68;0.40;;;;;;;;;;5041434;28;20093;-65
2022/12/17 15:06:54;;;;;;;0.52;0.30;;;;;;;;;;5042815;28;20037;-66
2022/12/17 15:09:21;;;;;;;1.20;0.70;;;;;;;;;;5040279;28;20084;-66
2022/12/17 15:11:48;;;;;;;1.35;0.75;;;;;;;;;;5038572;28;20769;-65
2022/12/17 15:14:14;;;;;;;1.13;0.50;;;;;;;;;;5041473;28;20041;-65
2022/12/17 15:16:41;;;;;;;0.32;0.22;;;;;;;;;;5041334;28;20029;-65
2022/12/17 15:19:08;;;;;;;3.00;0.98;;;;;;;;;;5056320;28;20091;-65
2022/12/17 15:21:34;;;;;;;1.20;0.50;;;;;;;;;;5038865;28;20438;-65
2022/12/17 15:24:01;;;;;;;0.60;0.30;;;;;;;;;;5033761;28;20056;-66
2022/12/17 15:26:28;;;;;;;0.52;0.32;;;;;;;;;;5038461;28;20040;-65
2022/12/17 15:28:54;;;;;;;0.68;0.30;;;;;;;;;;5053219;28;20543;-65
2022/12/17 15:31:21;;;;;;;1.65;0.65;;;;;;;;;;5029692;28;20040;-65
2022/12/17 15:33:48;;;;;;;0.68;0.32;;;;;;;;;;5051289;28;20045;-63
2022/12/17 15:36:14;;;;;;;0.95;0.40;;;;;;;;;;5039409;28;20044;-65
2022/12/17 15:38:41;;;;;;;1.48;0.60;;;;;;;;;;5038634;28;20147;-66
2022/12/17 15:43:53;;;;;;;2.58;0.80;;;;;;;;;;5036489;28;20122;-63
2022/12/17 15:46:20;;;;;;;0.88;0.35;;;;;;;;;;5038491;28;20075;-65
2022/12/17 15:48:46;;;;;;;2.25;0.73;;;;;;;;;;5053940;28;20132;-64
2022/12/17 15:51:13;;;;;;;1.23;0.50;;;;;;;;;;5038294;28;20390;-63
2022/12/17 15:53:40;;;;;;;0.95;0.40;;;;;;;;;;5043474;28;20124;-65
2022/12/17 15:56:06;;;;;;;1.65;0.57;;;;;;;;;;5033464;28;20496;-64
2022/12/17 15:58:33;;;;;;;1.17;0.52;;;;;;;;;;5039530;28;20136;-66
2022/12/17 16:01:00;;;;;;;1.23;0.50;;;;;;;;;;5037738;28;20052;-64
2022/12/17 16:03:27;;;;;;;2.30;0.50;;;;;;;;;;5041077;28;20127;-66
2022/12/17 16:05:53;;;;;;;0.90;0.40;;;;;;;;;;5038709;28;20392;-65
2022/12/17 16:08:20;;;;;;;0.30;0.30;;;;;;;;;;5039405;28;20060;-65
2022/12/17 16:10:47;;;;;;;1.45;0.47;;;;;;;;;;5020818;28;20029;-64
2022/12/17 16:13:14;;;;;;;1.35;0.45;;;;;;;;;;5052289;28;20037;-66
2022/12/17 16:15:42;;;;;;;1.92;0.73;;;;;;;;;;5039830;28;20041;-64
2022/12/17 16:18:09;;;;;;;1.42;0.50;;;;;;;;;;5054923;28;20128;-64
2022/12/17 16:20:36;;;;;;;1.70;0.50;;;;;;;;;;5031096;28;20048;-66
2022/12/17 16:23:02;;;;;;;5.30;0.30;;;;;;;;;;5041085;28;20115;-65
2022/12/17 16:25:29;;;;;;;1.88;0.60;;;;;;;;;;5056268;28;20048;-66
2022/12/17 16:27:56;;;;;;;0.80;0.35;;;;;;;;;;5044145;28;20142;-65
2022/12/17 16:30:42;;;;;;;4.78;0.65;;;;;;;;;;5037213;28;20049;-64
2022/12/17 16:33:09;;;;;;;2.47;1.25;;;;;;;;;;5036010;28;20037;-66
2022/12/17 16:35:35;;;;;;;1.23;0.60;;;;;;;;;;5019764;28;20183;-65
2022/12/17 16:38:02;;;;;;;2.70;0.90;;;;;;;;;;5036690;28;20045;-65
2022/12/17 16:40:29;;;;;;;2.00;0.70;;;;;;;;;;5017485;28;20048;-64
2022/12/17 16:42:55;;;;;;;1.80;0.82;;;;;;;;;;5035915;28;20642;-64
2022/12/17 16:45:47;;;;;;;0.77;0.32;;;;;;;;;;4993154;28;20423;-63
2022/12/17 16:48:14;;;;;;;2.70;0.73;;;;;;;;;;4977600;28;20093;-62
2022/12/17 16:50:43;;;;;;;1.65;0.50;;;;;;;;;;4993531;28;20038;-61
2022/12/17 16:53:10;;;;;;;1.48;0.60;;;;;;;;;;5000063;28;20034;-61
2022/12/17 16:55:40;;;;;;;1.55;0.52;;;;;;;;;;4995580;28;20038;-64
2022/12/17 16:58:07;;;;;;;0.50;0.30;;;;;;;;;;4998217;28;20057;-63
2022/12/17 17:00:34;;;;;;;0.52;0.38;;;;;;;;;;4997507;28;20103;-64
2022/12/17 17:03:00;;;;;;;1.33;0.50;;;;;;;;;;4986853;28;20104;-64
2022/12/17 17:05:27;;;;;;;2.63;0.60;;;;;;;;;;4996945;28;20042;-65
2022/12/17 17:07:54;;;;;;;2.15;0.75;;;;;;;;;;4998307;28;20091;-66
2022/12/17 17:10:21;;;;;;;2.88;1.00;;;;;;;;;;5005205;28;21860;-65
2022/12/17 17:12:47;;;;;;;2.53;0.80;;;;;;;;;;5016919;28;20037;-65
2022/12/17 17:15:14;;;;;;;4.10;1.02;;;;;;;;;;5018799;28;20163;-66
2022/12/17 17:17:41;;;;;;;2.20;0.95;;;;;;;;;;5018079;28;20533;-64
2022/12/17 17:20:07;;;;;;;1.35;0.70;;;;;;;;;;5017154;28;20129;-65
2022/12/17 17:22:34;;;;;;;1.38;0.50;;;;;;;;;;5023513;28;20114;-63
2022/12/17 17:25:01;;;;;;;2.53;0.75;;;;;;;;;;5040924;28;20053;-65
2022/12/17 17:27:27;;;;;;;1.13;0.50;;;;;;;;;;5040319;28;20031;-63
2022/12/17 17:29:55;;;;;;;2.40;0.80;;;;;;;;;;5040568;28;20168;-65
2022/12/17 17:32:22;;;;;;;2.40;0.77;;;;;;;;;;5041406;28;20806;-65
2022/12/17 17:34:49;;;;;;;0.55;0.30;;;;;;;;;;5041138;28;20037;-64
2022/12/17 17:37:15;;;;;;;0.60;0.30;;;;;;;;;;5041562;28;20045;-63
2022/12/17 17:39:42;;;;;;;0.68;0.40;;;;;;;;;;5039855;28;20045;-63
2022/12/17 17:42:09;;;;;;;1.38;0.55;;;;;;;;;;5040712;28;20147;-64
2022/12/17 17:44:37;;;;;;;0.20;0.20;;;;;;;;;;5041190;28;20037;-64
2022/12/17 17:47:04;;;;;;;1.70;0.60;;;;;;;;;;5041528;28;20041;-63
2022/12/17 17:49:30;;;;;;;1.63;0.63;;;;;;;;;;5039476;28;20044;-64
2022/12/17 17:51:57;;;;;;;1.05;0.50;;;;;;;;;;5041492;28;20045;-63
2022/12/17 17:54:24;;;;;;;1.92;0.90;;;;;;;;;;5040390;28;20061;-64
2022/12/17 17:56:50;;;;;;;1.35;0.63;;;;;;;;;;5041001;28;20218;-65
2022/12/17 17:59:18;;;;;;;1.75;0.60;;;;;;;;;;5041151;28;20186;-62
2022/12/17 18:01:46;;;;;;;1.65;0.60;;;;;;;;;;5039803;28;21293;-64
2022/12/17 18:04:15;;;;;;;0.98;0.45;;;;;;;;;;5039138;28;20044;-64
2022/12/17 18:06:42;;;;;;;1.33;0.52;;;;;;;;;;5041552;28;20093;-62
2022/12/17 18:09:09;;;;;;;1.70;0.70;;;;;;;;;;5040116;28;20048;-64
2022/12/17 18:11:37;;;;;;;0.70;0.32;;;;;;;;;;5040817;28;20174;-66
2022/12/17 18:14:04;;;;;;;1.33;0.50;;;;;;;;;;5040807;28;20040;-66
2022/12/17 18:16:31;;;;;;;0.90;0.43;;;;;;;;;;5039677;28;20079;-64
2022/12/17 18:19:00;;;;;;;1.27;0.63;;;;;;;;;;5052647;28;20068;-65
2022/12/17 18:21:27;;;;;;;1.35;0.82;;;;;;;;;;5040678;28;20060;-64
2022/12/17 18:23:55;;;;;;;0.95;0.50;;;;;;;;;;5041544;28;20049;-63
2022/12/17 18:26:23;;;;;;;0.20;0.20;;;;;;;;;;5041043;28;20706;-64
2022/12/17 18:28:50;;;;;;;0.35;0.30;;;;;;;;;;5040682;28;20153;-64
2022/12/17 18:31:18;;;;;;;0.20;0.20;;;;;;;;;;5052110;28;20095;-65
2022/12/17 18:33:46;;;;;;;0.90;0.60;;;;;;;;;;5042906;28;20052;-64
2022/12/17 18:36:14;;;;;;;0.70;0.30;;;;;;;;;;5043558;28;20036;-66
2022/12/17 18:38:41;;;;;;;0.65;0.45;;;;;;;;;;5041634;28;20041;-66
2022/12/17 18:43:22;;;;;;;1.73;0.45;;;;;;;;;;5042277;28;20049;-64
2022/12/17 18:43:56;;;;;;;2.42;0.40;;;;;;;;;;5041142;28;20047;-65
2022/12/17 18:46:23;;;;;;;2.85;0.82;;;;;;;;;;5040173;28;20041;-66
2022/12/17 18:48:52;;;;;;;0.47;0.35;;;;;;;;;;5040681;28;20106;-64
2022/12/17 18:51:21;;;;;;;1.52;0.50;;;;;;;;;;5035637;28;20044;-65
2022/12/17 18:53:49;;;;;;;0.70;0.35;;;;;;;;;;5040386;28;20484;-66
2022/12/17 18:56:16;;;;;;;0.43;0.30;;;;;;;;;;5051472;28;20386;-65
2022/12/17 18:58:42;;;;;;;1.60;0.63;;;;;;;;;;5038805;28;20045;-63
2022/12/17 19:01:17;;;;;;;1.13;0.50;;;;;;;;;;5034715;28;20908;-66
2022/12/17 19:03:44;;;;;;;1.33;0.50;;;;;;;;;;5040396;28;20047;-61
2022/12/17 19:06:11;;;;;;;0.80;0.45;;;;;;;;;;5042135;28;20044;-65
2022/12/17 19:08:37;;;;;;;0.38;0.20;;;;;;;;;;5040040;28;20045;-65
2022/12/17 19:11:05;;;;;;;0.40;0.22;;;;;;;;;;5040227;28;20393;-65
2022/12/17 19:13:32;;;;;;;0.25;0.22;;;;;;;;;;5039200;28;20037;-65
2022/12/17 19:16:18;;;;;;;1.73;0.60;;;;;;;;;;5045421;28;20067;-64
2022/12/17 19:18:50;;;;;;;1.35;0.45;;;;;;;;;;5037857;28;20110;-65
2022/12/17 19:21:17;;;;;;;0.55;0.30;;;;;;;;;;5040937;28;20048;-64
2022/12/17 19:23:43;;;;;;;0.43;0.40;;;;;;;;;;5039496;28;20087;-64
2022/12/17 19:26:15;;;;;;;0.75;0.43;;;;;;;;;;5040324;28;20060;-64
2022/12/17 19:28:42;;;;;;;2.25;0.65;;;;;;;;;;5036555;28;20113;-63
2022/12/17 19:31:10;;;;;;;1.65;0.75;;;;;;;;;;5038435;28;20045;-63
2022/12/17 19:33:37;;;;;;;1.67;0.50;;;;;;;;;;5038691;28;20556;-64
2022/12/17 19:36:04;;;;;;;2.00;0.80;;;;;;;;;;5040137;28;20052;-66
2022/12/17 19:38:31;;;;;;;3.05;0.65;;;;;;;;;;5038909;28;20120;-68
2022/12/17 19:41:05;;;;;;;0.55;0.30;;;;;;;;;;5038123;28;20688;-63
2022/12/17 19:43:34;;;;;;;0.65;0.38;;;;;;;;;;5034165;28;20636;-61
2022/12/17 19:46:01;;;;;;;0.47;0.30;;;;;;;;;;5039666;28;20049;-64
2022/12/17 19:48:29;;;;;;;3.08;0.63;;;;;;;;;;5038877;28;20449;-63
2022/12/17 19:50:56;;;;;;;1.17;0.52;;;;;;;;;;5039976;28;20175;-64
2022/12/17 19:53:26;;;;;;;2.75;0.70;;;;;;;;;;5038997;28;20048;-63
2022/12/17 19:55:54;;;;;;;0.93;0.38;;;;;;;;;;5038799;28;20041;-63
2022/12/17 19:58:21;;;;;;;0.60;0.40;;;;;;;;;;5038463;28;20173;-64
2022/12/17 20:00:48;;;;;;;1.20;0.40;;;;;;;;;;5054432;28;20064;-64
2022/12/17 20:03:14;;;;;;;0.82;0.40;;;;;;;;;;5040645;28;20139;-64
2022/12/17 20:05:45;;;;;;;0.90;0.40;;;;;;;;;;5032817;28;20052;-64
2022/12/17 20:08:12;;;;;;;0.63;0.55;;;;;;;;;;5039341;28;20148;-65
2022/12/17 20:10:39;;;;;;;7.30;0.77;;;;;;;;;;5037810;28;20033;-65
2022/12/17 20:13:05;;;;;;;1.05;0.93;;;;;;;;;;5035433;28;20045;-65
2022/12/17 20:15:32;;;;;;;1.40;0.45;;;;;;;;;;5028721;28;20048;-66
2022/12/17 20:17:59;;;;;;;0.25;0.20;;;;;;;;;;5052921;28;20534;-64
2022/12/17 20:20:26;;;;;;;0.85;0.40;;;;;;;;;;5036645;28;20029;-66
2022/12/17 20:22:52;;;;;;;1.73;0.90;;;;;;;;;;5042804;28;20052;-65
2022/12/17 20:25:19;;;;;;;0.93;0.40;;;;;;;;;;5043388;28;20056;-65
2022/12/17 20:27:46;;;;;;;1.20;0.47;;;;;;;;;;5044039;28;20075;-64
2022/12/17 20:30:12;;;;;;;0.80;0.43;;;;;;;;;;5042644;28;20033;-65
2022/12/17 20:32:39;;;;;;;0.77;0.40;;;;;;;;;;5047566;28;20123;-65
2022/12/17 20:35:06;;;;;;;0.60;0.30;;;;;;;;;;5045587;28;20490;-64
2022/12/17 20:37:33;;;;;;;0.57;0.30;;;;;;;;;;5043713;28;20063;-64
2022/12/17 20:40:00;;;;;;;3.10;0.63;;;;;;;;;;5050308;28;20033;-65
2022/12/17 20:42:26;;;;;;;1.48;0.60;;;;;;;;;;5048654;28;20041;-65
2022/12/17 20:44:53;;;;;;;0.45;0.32;;;;;;;;;;5051812;28;20079;-67
2022/12/17 20:47:20;;;;;;;1.27;0.47;;;;;;;;;;5059599;28;20041;-67
2022/12/17 20:49:47;;;;;;;1.17;0.40;;;;;;;;;;5035707;28;20249;-65
2022/12/17 20:52:13;;;;;;;0.90;0.40;;;;;;;;;;5042346;28;20044;-65
2022/12/17 20:54:40;;;;;;;3.47;0.50;;;;;;;;;;5042173;28;20564;-63
2022/12/17 20:57:07;;;;;;;0.20;0.20;;;;;;;;;;5041345;28;20049;-64
2022/12/17 20:59:33;;;;;;;2.88;0.43;;;;;;;;;;5051055;28;20546;-66
2022/12/17 21:02:00;;;;;;;1.00;0.38;;;;;;;;;;5041538;28;20052;-64
2022/12/17 21:04:27;;;;;;;0.73;0.30;;;;;;;;;;5036528;28;20486;-69
2022/12/17 21:07:13;;;;;;;3.10;1.65;;;;;;;;;;4986164;28;20038;-65
2022/12/17 21:09:40;;;;;;;0.93;0.50;;;;;;;;;;4984742;28;20161;-65
2022/12/17 21:12:08;;;;;;;1.45;0.50;;;;;;;;;;4986143;28;20192;-66
2022/12/17 21:14:35;;;;;;;1.75;0.70;;;;;;;;;;4985577;28;20042;-66
2022/12/17 21:17:02;;;;;;;1.20;0.50;;;;;;;;;;4986228;28;20106;-64
2022/12/17 21:19:28;;;;;;;1.65;0.60;;;;;;;;;;4984268;28;20073;-66
2022/12/17 21:21:55;;;;;;;0.88;0.40;;;;;;;;;;4986715;28;20497;-65
2022/12/17 21:24:22;;;;;;;0.88;0.32;;;;;;;;;;4986604;28;20188;-64
2022/12/17 21:26:48;;;;;;;2.22;0.57;;;;;;;;;;4972274;28;20291;-65
2022/12/17 21:29:17;;;;;;;0.40;0.40;;;;;;;;;;4986149;28;20641;-64
2022/12/17 21:31:45;;;;;;;0.10;0.10;;;;;;;;;;4986831;28;20049;-65
2022/12/17 21:34:13;;;;;;;3.42;0.40;;;;;;;;;;4988486;28;20039;-63
2022/12/17 21:36:40;;;;;;;0.20;0.20;;;;;;;;;;4971018;28;20050;-64
2022/12/17 21:39:08;;;;;;;0.75;0.38;;;;;;;;;;5032874;28;20090;-64
2022/12/17 21:41:35;;;;;;;0.75;0.40;;;;;;;;;;5042120;28;20068;-64
2022/12/17 21:44:04;;;;;;;1.88;0.60;;;;;;;;;;5042764;28;20040;-65
2022/12/17 21:46:31;;;;;;;0.90;0.40;;;;;;;;;;5042153;28;20556;-65
2022/12/17 21:48:58;;;;;;;0.60;0.28;;;;;;;;;;5044036;28;20045;-65
2022/12/17 21:51:26;;;;;;;1.15;0.50;;;;;;;;;;5044384;28;20045;-65
2022/12/17 21:53:54;;;;;;;0.30;0.30;;;;;;;;;;5042065;28;20029;-65
2022/12/17 21:56:20;;;;;;;0.35;0.20;;;;;;;;;;5040596;28;20051;-65
2022/12/17 21:58:47;;;;;;;1.20;0.57;;;;;;;;;;5041334;28;20563;-66
2022/12/17 22:01:24;;;;;;;0.20;0.20;;;;;;;;;;5040643;28;21826;-64
2022/12/17 22:03:51;;;;;;;0.43;0.40;;;;;;;;;;5040311;28;20056;-64
2022/12/17 22:06:19;;;;;;;1.65;0.73;;;;;;;;;;5041393;28;20098;-65
2022/12/17 22:08:46;;;;;;;1.00;0.50;;;;;;;;;;5040240;28;20052;-64
2022/12/17 22:11:17;;;;;;;1.13;0.70;;;;;;;;;;5040957;28;20116;-63
2022/12/17 22:14:05;;;;;;;1.10;0.43;;;;;;;;;;5040323;28;20150;-65
2022/12/17 22:16:37;;;;;;;0.82;0.40;;;;;;;;;;5041651;28;20052;-65
2022/12/17 22:19:04;;;;;;;1.40;0.50;;;;;;;;;;5041782;28;20119;-64
2022/12/17 22:21:35;;;;;;;1.30;0.50;;;;;;;;;;5051691;28;20389;-64
2022/12/17 22:24:02;;;;;;;0.98;0.45;;;;;;;;;;5042848;28;20472;-64
2022/12/17 22:26:29;;;;;;;0.45;0.40;;;;;;;;;;5041425;28;20619;-62
2022/12/17 22:28:56;;;;;;;1.25;0.50;;;;;;;;;;5042059;28;20044;-64
2022/12/17 22:34:10;;;;;;;1.80;0.95;;;;;;;;;;5042454;28;20113;-65
2022/12/17 22:36:37;;;;;;;0.30;0.30;;;;;;;;;;5041244;28;20036;-65
2022/12/17 22:39:05;;;;;;;0.25;0.25;;;;;;;;;;5041032;28;20033;-65
2022/12/17 22:44:16;;;;;;;0.93;0.50;;;;;;;;;;5040403;28;21438;-65
2022/12/17 22:46:43;;;;;;;0.20;0.20;;;;;;;;;;5038726;28;20059;-65
2022/12/17 22:49:10;;;;;;;2.70;0.93;;;;;;;;;;5038657;28;20578;-64
2022/12/17 22:51:37;;;;;;;0.35;0.30;;;;;;;;;;5040188;28;20041;-64
2022/12/17 22:54:07;;;;;;;0.22;0.22;;;;;;;;;;5038791;28;20052;-64
2022/12/17 22:56:35;;;;;;;0.73;0.50;;;;;;;;;;5039856;28;20128;-64
2022/12/17 22:59:02;;;;;;;2.65;0.68;;;;;;;;;;5040022;28;20327;-65
2022/12/17 23:01:29;;;;;;;0.40;0.40;;;;;;;;;;5037599;28;20092;-65
2022/12/17 23:03:57;;;;;;;1.05;0.57;;;;;;;;;;5038178;28;20477;-65
2022/12/17 23:06:24;;;;;;;1.90;0.40;;;;;;;;;;5038933;28;20095;-65
2022/12/17 23:08:51;;;;;;;0.20;0.20;;;;;;;;;;5039931;28;20103;-64
2022/12/17 23:11:19;;;;;;;1.50;0.63;;;;;;;;;;5039246;28;20191;-61
2022/12/17 23:13:45;;;;;;;1.20;0.40;;;;;;;;;;5040772;28;20044;-65
2022/12/17 23:16:12;;;;;;;0.85;0.68;;;;;;;;;;5038984;28;20089;-64
2022/12/17 23:18:40;;;;;;;0.28;0.28;;;;;;;;;;5031880;28;20994;-63
2022/12/17 23:21:08;;;;;;;0.30;0.30;;;;;;;;;;5039697;28;20139;-64
2022/12/17 23:23:35;;;;;;;1.55;0.55;;;;;;;;;;5037704;28;20393;-66
2022/12/17 23:26:12;;;;;;;1.33;0.85;;;;;;;;;;5039068;28;20100;-64
2022/12/17 23:28:39;;;;;;;2.10;1.23;;;;;;;;;;5036167;28;20045;-65
2022/12/17 23:31:07;;;;;;;0.88;0.65;;;;;;;;;;5039549;28;20344;-64
2022/12/17 23:33:34;;;;;;;1.88;0.85;;;;;;;;;;5038979;28;20127;-62
2022/12/17 23:36:08;;;;;;;0.32;0.22;;;;;;;;;;5040461;28;20029;-63
2022/12/17 23:38:35;;;;;;;1.23;0.60;;;;;;;;;;5037714;28;20045;-64
2022/12/17 23:41:05;;;;;;;0.47;0.30;;;;;;;;;;5042749;28;20076;-65
2022/12/17 23:43:32;;;;;;;0.40;0.38;;;;;;;;;;5040993;28;20049;-65
2022/12/17 23:45:59;;;;;;;0.63;0.40;;;;;;;;;;5040548;28;20127;-66
2022/12/17 23:48:30;;;;;;;2.10;0.77;;;;;;;;;;5039246;28;21658;-65
2022/12/17 23:50:57;;;;;;;0.35;0.28;;;;;;;;;;5038632;28;20035;-65
2022/12/17 23:53:24;;;;;;;0.20;0.20;;;;;;;;;;5038410;28;20072;-64
2022/12/17 23:55:51;;;;;;;1.25;0.50;;;;;;;;;;5039939;28;20052;-65
2022/12/17 23:58:17;;;;;;;1.25;0.50;;;;;;;;;;5033651;28;20043;-59
